Time;durP1;ratioP1;P1;durP2;ratioP2;P2;SDS_P1;SDS_P2;PMS_P1;PMS_P2;Temp;Humidity;BMP_temperature;BMP_pressure;BME280_temperature;BME280_humidity;BME280_pressure;Samples;Min_cycle;Max_cycle;Signal;HPM_P1;HPM_P2
2022/09/27 00:00:31;;;;;;;7.10;6.10;;;11.50;1.00;;;;;;5055319;28;20179;-71
2022/09/27 00:02:57;;;;;;;10.87;6.60;;;11.60;1.00;;;;;;5037078;28;20187;-70
2022/09/27 00:05:22;;;;;;;7.30;6.60;;;11.50;1.00;;;;;;5035892;28;20484;-72
2022/09/27 00:07:48;;;;;;;7.20;6.60;;;11.50;1.00;;;;;;5055122;28;20201;-71
2022/09/27 00:10:14;;;;;;;7.87;7.10;;;11.50;1.00;;;;;;5056381;28;20171;-71
2022/09/27 00:12:40;;;;;;;9.27;8.37;;;11.40;1.00;;;;;;5039871;28;20175;-71
2022/09/27 00:15:08;;;;;;;8.77;7.97;;;11.50;1.00;;;;;;5035346;28;20392;-68
2022/09/27 00:17:35;;;;;;;8.93;8.10;;;11.50;1.00;;;;;;5051438;28;20398;-69
2022/09/27 00:20:02;;;;;;;10.90;8.20;;;11.50;1.00;;;;;;5056759;28;20456;-69
2022/09/27 00:22:28;;;;;;;8.47;7.60;;;11.50;1.00;;;;;;5042822;28;20404;-71
2022/09/27 00:24:54;;;;;;;8.80;7.90;;;11.50;1.00;;;;;;5035539;28;20432;-68
2022/09/27 00:27:20;;;;;;;9.30;8.33;;;11.50;1.00;;;;;;5036180;28;20663;-66
2022/09/27 00:29:46;;;;;;;9.57;8.70;;;11.50;1.00;;;;;;5035924;28;20380;-68
2022/09/27 00:32:13;;;;;;;12.80;8.33;;;11.50;1.00;;;;;;5046700;28;20392;-65
2022/09/27 00:34:39;;;;;;;9.97;8.90;;;11.50;1.00;;;;;;5051603;28;20455;-69
2022/09/27 00:37:05;;;;;;;9.97;8.93;;;11.60;1.00;;;;;;5055469;28;20748;-68
2022/09/27 00:39:31;;;;;;;9.50;8.50;;;11.60;1.00;;;;;;5056134;28;20369;-66
2022/09/27 00:41:56;;;;;;;8.90;7.90;;;11.60;1.00;;;;;;5048916;28;20456;-69
2022/09/27 00:44:27;;;;;;;10.97;8.30;;;11.60;1.00;;;;;;5036595;28;20188;-66
2022/09/27 00:47:13;;;;;;;8.30;7.37;;;11.60;1.00;;;;;;5055638;28;20194;-68
2022/09/27 00:49:47;;;;;;;8.73;7.93;;;11.60;1.00;;;;;;5054104;28;20496;-68
2022/09/27 00:52:19;;;;;;;8.90;8.10;;;11.60;1.00;;;;;;5055511;28;20819;-70
2022/09/27 00:54:49;;;;;;;9.37;8.47;;;11.50;1.00;;;;;;5050544;28;20401;-66
2022/09/27 00:57:16;;;;;;;10.60;8.73;;;11.50;1.00;;;;;;5034712;28;20420;-65
2022/09/27 00:59:49;;;;;;;8.43;7.60;;;11.50;1.00;;;;;;5037626;28;20384;-66
2022/09/27 01:02:15;;;;;;;8.23;7.50;;;11.60;1.00;;;;;;5055744;28;20442;-68
2022/09/27 01:04:42;;;;;;;8.87;8.07;;;11.60;1.00;;;;;;5051862;28;20828;-70
2022/09/27 01:07:08;;;;;;;8.60;7.73;;;11.60;1.00;;;;;;5054168;28;20206;-68
2022/09/27 01:09:34;;;;;;;7.93;7.30;;;11.60;1.00;;;;;;5053694;28;20437;-69
2022/09/27 01:12:24;;;;;;;8.47;7.23;;;11.60;1.00;;;;;;5035475;28;20168;-68
2022/09/27 01:15:05;;;;;;;7.47;6.57;;;11.60;1.00;;;;;;5037397;28;20481;-66
2022/09/27 01:17:55;;;;;;;7.20;6.47;;;11.50;1.00;;;;;;5055531;28;20869;-66
2022/09/27 01:20:42;;;;;;;7.70;6.87;;;11.60;1.00;;;;;;5048518;28;20741;-68
2022/09/27 01:23:52;;;;;;;8.23;7.40;;;11.60;1.00;;;;;;5035470;28;20431;-67
2022/09/27 01:26:36;;;;;;;7.13;6.53;;;11.60;1.00;;;;;;5043277;28;20477;-66
2022/09/27 01:29:33;;;;;;;7.43;6.30;;;11.60;1.00;;;;;;5034963;28;20380;-66
2022/09/27 01:32:17;;;;;;;7.37;6.70;;;11.70;1.00;;;;;;5053736;28;20452;-66
2022/09/27 01:35:00;;;;;;;8.03;7.23;;;11.70;1.00;;;;;;5054355;28;20398;-65
2022/09/27 01:37:54;;;;;;;9.70;7.30;;;11.70;1.00;;;;;;5035210;28;20371;-65
2022/09/27 01:40:24;;;;;;;8.73;7.83;;;11.60;1.00;;;;;;5037654;28;20388;-68
2022/09/27 01:43:15;;;;;;;7.30;6.60;;;11.60;1.00;;;;;;5055148;28;20402;-65
2022/09/27 01:45:55;;;;;;;7.43;6.73;;;11.60;1.00;;;;;;5047282;28;20440;-68
2022/09/27 01:48:33;;;;;;;8.17;7.37;;;11.60;1.00;;;;;;5034470;28;20730;-70
2022/09/27 01:51:14;;;;;;;7.63;6.93;;;11.60;1.00;;;;;;5042435;28;20416;-66
2022/09/27 01:53:44;;;;;;;8.23;6.60;;;11.70;1.00;;;;;;5053996;28;20852;-66
2022/09/27 01:56:20;;;;;;;7.23;6.53;;;11.60;1.00;;;;;;5052937;28;20441;-69
2022/09/27 01:58:55;;;;;;;7.57;6.43;;;11.60;1.00;;;;;;5055048;28;20372;-67
2022/09/27 02:01:23;;;;;;;8.07;6.67;;;11.60;1.00;;;;;;5034988;28;20483;-65
2022/09/27 02:03:51;;;;;;;10.60;6.60;;;11.60;1.00;;;;;;5033338;28;20902;-66
2022/09/27 02:06:36;;;;;;;7.40;6.70;;;11.50;1.00;;;;;;5051893;28;20465;-66
2022/09/27 02:09:09;;;;;;;6.50;5.90;;;11.60;1.00;;;;;;5054601;28;20375;-69
2022/09/27 02:11:38;;;;;;;6.83;6.20;;;11.60;1.00;;;;;;5054411;28;20884;-66
2022/09/27 02:14:31;;;;;;;7.97;7.17;;;11.60;1.00;;;;;;5053556;28;20459;-66
2022/09/27 02:17:06;;;;;;;7.67;6.87;;;11.60;1.00;;;;;;5034493;28;20466;-69
2022/09/27 02:20:01;;;;;;;6.30;5.80;;;11.60;1.00;;;;;;5037770;28;20413;-67
2022/09/27 02:22:44;;;;;;;7.03;6.40;;;11.60;1.00;;;;;;5033264;28;20746;-68
2022/09/27 02:25:23;;;;;;;7.13;6.47;;;11.60;1.00;;;;;;5033380;28;20490;-66
2022/09/27 02:28:00;;;;;;;8.03;6.67;;;11.60;1.00;;;;;;5034375;28;20403;-68
2022/09/27 02:30:26;;;;;;;6.40;5.80;;;11.60;1.00;;;;;;5043352;28;20388;-66
2022/09/27 02:32:52;;;;;;;7.07;6.37;;;11.60;1.00;;;;;;5053044;28;20376;-69
2022/09/27 02:35:28;;;;;;;7.30;6.60;;;11.60;1.00;;;;;;5052252;28;20415;-66
2022/09/27 02:37:54;;;;;;;6.73;6.00;;;11.60;1.00;;;;;;5053515;28;20901;-69
2022/09/27 02:40:21;;;;;;;6.50;5.90;;;11.60;1.00;;;;;;5043587;28;20421;-65
2022/09/27 02:42:47;;;;;;;5.90;5.40;;;11.60;1.00;;;;;;5033886;28;20460;-66
2022/09/27 02:45:15;;;;;;;6.10;5.60;;;11.70;1.00;;;;;;5049733;28;20589;-65
2022/09/27 02:48:09;;;;;;;6.90;6.30;;;11.60;1.00;;;;;;5053898;28;20647;-66
2022/09/27 02:50:44;;;;;;;6.07;5.33;;;11.50;1.00;;;;;;5034426;28;20385;-69
2022/09/27 02:53:19;;;;;;;6.47;5.87;;;11.50;1.00;;;;;;5051986;28;20384;-67
2022/09/27 02:56:00;;;;;;;5.97;5.57;;;11.50;1.00;;;;;;5052481;28;20418;-66
2022/09/27 02:58:57;;;;;;;6.20;5.70;;;11.50;1.00;;;;;;5053277;28;20459;-68
2022/09/27 03:01:32;;;;;;;6.27;5.33;;;11.50;1.00;;;;;;5033425;28;20809;-68
2022/09/27 03:04:14;;;;;;;6.47;5.83;;;11.60;1.00;;;;;;5034647;28;21165;-65
2022/09/27 03:06:44;;;;;;;5.50;5.03;;;11.60;1.00;;;;;;5053537;28;20408;-70
2022/09/27 03:09:29;;;;;;;5.63;4.83;;;11.60;1.00;;;;;;5051903;28;20427;-66
2022/09/27 03:11:55;;;;;;;5.20;4.80;;;11.50;1.00;;;;;;5053080;28;20484;-65
2022/09/27 03:14:20;;;;;;;5.97;5.47;;;11.50;1.00;;;;;;5045953;28;20472;-65
2022/09/27 03:16:46;;;;;;;5.80;5.17;;;11.50;1.00;;;;;;5033475;28;20195;-66
2022/09/27 03:19:12;;;;;;;6.07;5.53;;;11.50;1.00;;;;;;5036449;28;20313;-67
2022/09/27 03:21:38;;;;;;;5.43;4.93;;;11.50;1.00;;;;;;5033423;28;20171;-66
2022/09/27 03:24:04;;;;;;;5.33;4.93;;;11.50;1.00;;;;;;5032725;28;20644;-66
2022/09/27 03:26:30;;;;;;;6.23;5.80;;;11.50;1.00;;;;;;5033373;28;20413;-68
2022/09/27 03:28:56;;;;;;;5.83;5.33;;;11.60;1.00;;;;;;5042818;28;20392;-68
2022/09/27 03:31:21;;;;;;;6.17;5.57;;;11.60;1.00;;;;;;5052787;28;20166;-68
2022/09/27 03:33:47;;;;;;;5.63;4.27;;;11.60;1.00;;;;;;5043521;28;20175;-68
2022/09/27 03:36:13;;;;;;;5.87;5.37;;;11.60;1.00;;;;;;5033254;28;20199;-68
2022/09/27 03:38:39;;;;;;;6.37;5.77;;;11.60;1.00;;;;;;5039369;28;20183;-66
2022/09/27 03:41:05;;;;;;;5.87;5.27;;;11.60;1.00;;;;;;5053118;28;20167;-66
2022/09/27 03:43:30;;;;;;;6.43;5.83;;;11.60;1.00;;;;;;5047632;28;20397;-67
2022/09/27 03:45:56;;;;;;;6.80;6.20;;;11.60;1.00;;;;;;5032402;28;20478;-65
2022/09/27 03:48:22;;;;;;;6.20;5.67;;;11.60;1.00;;;;;;5035793;28;20175;-67
2022/09/27 03:50:49;;;;;;;6.43;5.93;;;11.60;1.00;;;;;;5052898;28;20171;-68
2022/09/27 03:53:15;;;;;;;6.20;5.70;;;11.60;1.00;;;;;;5051715;28;20167;-66
2022/09/27 03:55:40;;;;;;;6.40;5.90;;;11.70;1.00;;;;;;5032674;28;20454;-68
2022/09/27 03:58:06;;;;;;;5.67;5.27;;;11.70;1.00;;;;;;5033209;28;20168;-68
2022/09/27 04:00:32;;;;;;;6.43;5.90;;;11.70;1.00;;;;;;5033309;28;20203;-68
2022/09/27 04:02:58;;;;;;;5.90;5.40;;;11.60;1.00;;;;;;5051108;28;20194;-66
2022/09/27 04:05:26;;;;;;;6.40;5.90;;;11.60;1.00;;;;;;5051348;28;20202;-67
2022/09/27 04:07:51;;;;;;;7.50;6.30;;;11.60;1.00;;;;;;5035759;28;20415;-67
2022/09/27 04:10:17;;;;;;;5.73;5.33;;;11.60;1.00;;;;;;5033155;28;20832;-67
2022/09/27 04:12:44;;;;;;;5.83;5.33;;;11.60;1.00;;;;;;5047433;28;20201;-66
2022/09/27 04:15:10;;;;;;;5.33;4.83;;;11.50;1.00;;;;;;5051925;28;20244;-69
2022/09/27 04:17:36;;;;;;;4.80;4.40;;;11.60;1.00;;;;;;5039089;28;20404;-68
2022/09/27 04:20:02;;;;;;;4.90;4.60;;;11.50;1.00;;;;;;5032988;28;20389;-67
2022/09/27 04:22:28;;;;;;;5.17;4.60;;;11.50;1.00;;;;;;5044419;28;20183;-68
2022/09/27 04:24:54;;;;;;;4.50;4.20;;;11.50;1.00;;;;;;5051278;28;20509;-68
2022/09/27 04:27:21;;;;;;;6.27;5.07;;;11.50;1.00;;;;;;5048532;28;20823;-68
2022/09/27 04:29:47;;;;;;;5.33;4.50;;;11.60;1.00;;;;;;5052701;28;20186;-67
2022/09/27 04:32:13;;;;;;;5.30;4.90;;;11.50;1.00;;;;;;5039649;28;20881;-67
2022/09/27 04:37:23;;;;;;;5.73;5.23;;;11.50;1.00;;;;;;5051787;28;20411;-68
2022/09/27 04:39:49;;;;;;;7.03;4.23;;;11.50;1.00;;;;;;5053178;28;20380;-66
2022/09/27 04:42:15;;;;;;;4.43;4.13;;;11.50;1.00;;;;;;5038154;28;20187;-66
2022/09/27 04:44:40;;;;;;;3.80;3.60;;;11.50;1.00;;;;;;5048030;28;20199;-66
2022/09/27 04:47:06;;;;;;;4.60;4.20;;;11.50;1.00;;;;;;5055731;28;20760;-66
2022/09/27 04:49:32;;;;;;;4.30;3.90;;;11.40;1.00;;;;;;5044367;28;20216;-67
2022/09/27 04:51:57;;;;;;;4.60;4.27;;;11.40;1.00;;;;;;5035663;28;20171;-67
2022/09/27 04:54:23;;;;;;;5.90;4.60;;;11.40;1.00;;;;;;5043285;28;20190;-66
2022/09/27 04:56:49;;;;;;;4.67;4.27;;;11.40;1.00;;;;;;5055777;28;20248;-67
2022/09/27 04:59:15;;;;;;;7.10;4.00;;;11.40;1.00;;;;;;5047920;28;20548;-67
2022/09/27 05:01:40;;;;;;;7.63;5.23;;;11.40;1.00;;;;;;5035279;28;20587;-69
2022/09/27 05:04:06;;;;;;;4.97;4.60;;;11.40;1.00;;;;;;5039357;28;20178;-67
2022/09/27 05:06:32;;;;;;;4.60;4.20;;;11.50;1.00;;;;;;5055788;28;20190;-67
2022/09/27 05:08:58;;;;;;;4.43;4.13;;;11.50;1.00;;;;;;5049618;28;20628;-68
2022/09/27 05:11:25;;;;;;;4.60;4.20;;;11.50;1.00;;;;;;5035819;28;20168;-67
2022/09/27 05:13:51;;;;;;;4.63;4.20;;;11.50;1.00;;;;;;5037304;28;20175;-68
2022/09/27 05:16:17;;;;;;;4.40;4.00;;;11.50;1.00;;;;;;5055607;28;20518;-67
2022/09/27 05:18:42;;;;;;;5.00;4.17;;;11.50;1.00;;;;;;5053682;28;20380;-66
2022/09/27 05:21:08;;;;;;;3.73;3.53;;;11.50;1.00;;;;;;5035559;28;20491;-66
2022/09/27 05:23:34;;;;;;;3.93;3.63;;;11.50;1.00;;;;;;5035336;28;20168;-67
2022/09/27 05:26:06;;;;;;;4.40;4.00;;;11.50;1.00;;;;;;5053615;28;20252;-67
2022/09/27 05:28:34;;;;;;;4.80;4.40;;;11.50;1.00;;;;;;5054935;28;20181;-66
2022/09/27 05:31:00;;;;;;;4.10;3.80;;;11.50;1.00;;;;;;5036113;28;20393;-67
2022/09/27 05:33:26;;;;;;;4.20;3.80;;;11.50;1.00;;;;;;5035098;28;20853;-67
2022/09/27 05:35:53;;;;;;;5.13;4.73;;;11.50;1.00;;;;;;5050974;28;20477;-71
2022/09/27 05:38:19;;;;;;;4.13;3.83;;;11.40;1.00;;;;;;5053484;28;20174;-72
2022/09/27 05:40:47;;;;;;;4.37;4.00;;;11.50;1.00;;;;;;5055112;28;20471;-73
2022/09/27 05:43:13;;;;;;;4.43;4.03;;;11.50;1.00;;;;;;5040595;28;20895;-73
2022/09/27 05:45:38;;;;;;;4.63;4.23;;;11.50;1.00;;;;;;5033651;28;20468;-69
2022/09/27 05:48:05;;;;;;;4.30;4.00;;;11.50;1.00;;;;;;5045970;28;20434;-70
2022/09/27 05:50:31;;;;;;;5.43;4.93;;;11.50;1.00;;;;;;5053197;28;20174;-68
2022/09/27 05:52:57;;;;;;;4.87;4.47;;;11.50;1.00;;;;;;5043175;28;20413;-68
2022/09/27 05:55:23;;;;;;;5.90;5.40;;;11.50;1.00;;;;;;5033787;28;20440;-67
2022/09/27 05:58:15;;;;;;;4.80;4.37;;;11.50;1.00;;;;;;5035919;28;20168;-72
2022/09/27 06:00:42;;;;;;;10.40;5.57;;;11.50;1.00;;;;;;5035405;28;20179;-68
2022/09/27 06:03:09;;;;;;;5.00;4.70;;;11.50;1.00;;;;;;5045374;28;20429;-67
2022/09/27 06:05:36;;;;;;;8.23;4.07;;;11.60;1.00;;;;;;5052068;28;20463;-72
2022/09/27 06:08:09;;;;;;;5.00;4.30;;;11.50;1.00;;;;;;5044119;28;20466;-67
2022/09/27 06:10:35;;;;;;;5.37;4.87;;;11.60;1.00;;;;;;5034496;28;20747;-72
2022/09/27 06:13:12;;;;;;;4.77;4.37;;;11.60;1.00;;;;;;5042292;28;20441;-71
2022/09/27 06:15:39;;;;;;;6.40;5.13;;;11.60;1.00;;;;;;5053473;28;20429;-72
2022/09/27 06:18:16;;;;;;;5.17;4.73;;;11.60;1.00;;;;;;5043275;28;20420;-73
2022/09/27 06:20:41;;;;;;;5.13;4.73;;;11.60;1.00;;;;;;5033901;28;20475;-68
2022/09/27 06:23:25;;;;;;;4.83;4.33;;;11.60;1.00;;;;;;5039997;28;20498;-68
2022/09/27 06:25:52;;;;;;;4.93;4.47;;;11.60;1.00;;;;;;5052214;28;20233;-68
2022/09/27 06:28:18;;;;;;;5.73;5.23;;;11.60;1.00;;;;;;5053352;28;20860;-72
2022/09/27 06:30:46;;;;;;;5.57;5.17;;;11.60;1.00;;;;;;5053699;28;20459;-74
2022/09/27 06:33:18;;;;;;;5.37;4.97;;;11.60;1.00;;;;;;5036052;28;20495;-72
2022/09/27 06:35:45;;;;;;;5.90;4.83;;;11.60;1.00;;;;;;5031594;28;20942;-68
2022/09/27 06:38:14;;;;;;;5.40;5.00;;;11.60;1.00;;;;;;5050787;28;20884;-69
2022/09/27 06:40:44;;;;;;;4.50;4.10;;;11.60;1.00;;;;;;5053943;28;20944;-69
2022/09/27 06:43:11;;;;;;;4.60;4.20;;;11.60;1.00;;;;;;5041020;28;20389;-72
2022/09/27 06:45:37;;;;;;;5.40;4.90;;;11.60;1.00;;;;;;5051764;28;20424;-68
2022/09/27 06:48:05;;;;;;;4.70;4.40;;;11.60;1.00;;;;;;5053401;28;20365;-72
2022/09/27 06:50:33;;;;;;;4.57;4.17;;;11.60;1.00;;;;;;5053689;28;20376;-69
2022/09/27 06:52:59;;;;;;;5.23;4.70;;;11.60;1.00;;;;;;5052386;28;20394;-68
2022/09/27 06:55:25;;;;;;;4.93;4.63;;;11.60;1.00;;;;;;5052839;28;20805;-73
2022/09/27 07:00:46;;;;;;;8.50;4.80;;;11.70;1.00;;;;;;5053771;28;20379;-68
2022/09/27 07:03:13;;;;;;;6.33;4.20;;;11.70;1.00;;;;;;5052559;28;20414;-73
2022/09/27 07:05:41;;;;;;;6.70;4.30;;;11.80;1.00;;;;;;5052421;28;20528;-72
2022/09/27 07:08:10;;;;;;;5.70;4.90;;;11.80;1.00;;;;;;5053662;28;20365;-73
2022/09/27 07:10:37;;;;;;;7.63;5.43;;;11.80;1.00;;;;;;5052993;28;20377;-69
2022/09/27 07:13:05;;;;;;;5.13;4.73;;;11.70;1.00;;;;;;5053550;28;20381;-72
2022/09/27 07:15:31;;;;;;;5.40;4.33;;;11.80;1.00;;;;;;5051408;28;20930;-79
2022/09/27 07:17:58;;;;;;;5.90;5.40;;;11.70;1.00;;;;;;5053450;28;20772;-80
2022/09/27 07:20:25;;;;;;;5.80;5.23;;;11.80;1.00;;;;;;5053263;28;20404;-77
2022/09/27 07:22:51;;;;;;;5.93;5.37;;;11.80;1.00;;;;;;5053079;28;20891;-83
2022/09/27 07:25:17;;;;;;;5.10;4.60;;;11.80;1.00;;;;;;5052542;28;20431;-76
2022/09/27 07:27:42;;;;;;;6.37;4.73;;;11.90;1.00;;;;;;5052903;28;20798;-84
2022/09/27 07:30:10;;;;;;;5.13;4.63;;;11.90;1.00;;;;;;5053424;28;20467;-77
2022/09/27 07:32:37;;;;;;;6.50;5.70;;;11.90;1.00;;;;;;5053228;28;20280;-74
2022/09/27 07:35:07;;;;;;;7.83;6.20;;;11.90;1.00;;;;;;5052293;28;20449;-76
2022/09/27 07:37:34;;;;;;;6.67;6.00;;;11.90;1.00;;;;;;5053184;28;20391;-76
2022/09/27 07:40:01;;;;;;;8.03;5.70;;;11.90;1.00;;;;;;5052728;28;20463;-68
2022/09/27 07:42:30;;;;;;;10.30;6.40;;;12.00;1.00;;;;;;5051815;28;20380;-71
2022/09/27 07:44:56;;;;;;;7.90;5.60;;;11.90;1.00;;;;;;5050842;28;20428;-68
2022/09/27 07:47:23;;;;;;;6.40;5.80;;;12.00;1.00;;;;;;5051377;28;20957;-73
2022/09/27 07:49:52;;;;;;;7.97;6.30;;;12.10;1.00;;;;;;5053152;28;20370;-68
2022/09/27 07:52:18;;;;;;;6.77;5.77;;;12.00;1.00;;;;;;5053082;28;20379;-68
2022/09/27 07:54:45;;;;;;;5.80;5.13;;;12.00;1.00;;;;;;5051077;28;20445;-71
2022/09/27 07:57:11;;;;;;;8.30;5.60;;;12.00;1.00;;;;;;5052495;28;20412;-68
2022/09/27 07:59:36;;;;;;;5.53;4.93;;;12.10;1.00;;;;;;5051898;28;20500;-71
2022/09/27 08:02:03;;;;;;;6.60;5.17;;;12.10;1.00;;;;;;5053154;28;20395;-71
2022/09/27 08:04:28;;;;;;;6.17;5.53;;;12.20;1.00;;;;;;5051810;28;20174;-68
2022/09/27 08:06:54;;;;;;;7.97;6.03;;;12.20;1.00;;;;;;5051750;28;20380;-70
2022/09/27 08:09:20;;;;;;;5.83;5.20;;;12.30;1.00;;;;;;5052797;28;20163;-69
2022/09/27 08:11:47;;;;;;;4.57;4.07;;;12.30;1.00;;;;;;5053041;28;20364;-68
2022/09/27 08:14:13;;;;;;;4.40;4.00;;;12.20;1.00;;;;;;5051805;28;20170;-68
2022/09/27 08:16:40;;;;;;;4.63;3.93;;;12.20;1.00;;;;;;5056644;28;20413;-68
2022/09/27 08:19:06;;;;;;;6.00;3.47;;;12.30;1.00;;;;;;5056731;28;20924;-72
2022/09/27 08:21:32;;;;;;;3.47;3.17;;;12.30;1.00;;;;;;5056186;28;20376;-70
2022/09/27 08:23:58;;;;;;;3.40;3.10;;;12.30;1.00;;;;;;5055895;28;20412;-72
2022/09/27 08:26:27;;;;;;;3.60;3.30;;;12.30;1.00;;;;;;5056372;28;20456;-72
2022/09/27 08:28:53;;;;;;;3.57;3.07;;;12.30;1.00;;;;;;5056567;28;20444;-69
2022/09/27 08:31:18;;;;;;;4.43;3.47;;;12.30;1.00;;;;;;5048313;28;20899;-68
2022/09/27 08:33:51;;;;;;;5.47;2.70;;;12.30;1.00;;;;;;5034661;28;20195;-73
2022/09/27 08:36:19;;;;;;;6.07;2.70;;;12.30;1.00;;;;;;5035651;28;20188;-72
2022/09/27 08:38:48;;;;;;;8.20;2.60;;;12.30;1.00;;;;;;5035912;28;20377;-73
2022/09/27 08:41:43;;;;;;;2.60;2.13;;;12.30;1.00;;;;;;5036251;28;20406;-73
2022/09/27 08:44:42;;;;;;;5.17;2.43;;;12.30;1.00;;;;;;5035685;28;20484;-73
2022/09/27 08:47:13;;;;;;;5.73;2.53;;;12.30;1.00;;;;;;5036171;28;20426;-72
2022/09/27 08:49:52;;;;;;;5.97;2.50;;;12.20;1.00;;;;;;5035139;28;20978;-72
2022/09/27 08:52:31;;;;;;;3.47;2.40;;;12.10;1.00;;;;;;5035740;28;20392;-68
2022/09/27 08:55:03;;;;;;;10.43;2.50;;;12.20;1.00;;;;;;5034969;28;20959;-72
2022/09/27 08:57:28;;;;;;;4.00;3.60;;;12.20;1.00;;;;;;5034940;28;20402;-68
2022/09/27 09:00:00;;;;;;;4.43;2.43;;;12.30;1.00;;;;;;5035953;28;20879;-72
2022/09/27 09:02:26;;;;;;;6.87;2.60;;;12.40;1.00;;;;;;5035839;28;20175;-72
2022/09/27 09:05:07;;;;;;;5.83;3.00;;;12.40;1.00;;;;;;5035216;28;20439;-70
2022/09/27 09:08:02;;;;;;;4.10;2.57;;;12.40;1.00;;;;;;5035724;28;20164;-70
2022/09/27 09:14:01;;;;;;;3.70;2.73;;;12.30;1.00;;;;;;5035221;28;20444;-72
2022/09/27 09:17:08;;;;;;;4.83;2.53;;;12.40;1.00;;;;;;5034624;28;20404;-72
2022/09/27 09:19:49;;;;;;;3.47;3.13;;;12.50;1.00;;;;;;5035644;28;20377;-73
2022/09/27 09:22:21;;;;;;;6.13;2.80;;;12.60;1.00;;;;;;5035691;28;20414;-70
2022/09/27 09:25:11;;;;;;;10.00;2.93;;;12.60;1.00;;;;;;5034663;28;20985;-70
2022/09/27 09:28:06;;;;;;;3.87;2.23;;;12.60;1.00;;;;;;5035115;28;20804;-72
2022/09/27 09:30:58;;;;;;;4.60;2.37;;;12.70;1.00;;;;;;5035067;28;20403;-72
2022/09/27 09:33:29;;;;;;;4.90;2.30;;;12.60;1.00;;;;;;5034949;28;20398;-74
2022/09/27 09:35:58;;;;;;;7.63;2.50;;;12.70;1.00;;;;;;5033535;28;20782;-74
2022/09/27 09:38:37;;;;;;;5.10;2.50;;;12.80;1.00;;;;;;5035274;28;20373;-70
2022/09/27 09:41:12;;;;;;;8.53;2.87;;;12.80;1.00;;;;;;5035154;28;20489;-70
2022/09/27 09:43:55;;;;;;;6.73;2.60;;;12.80;1.00;;;;;;5034666;28;20754;-76
2022/09/27 09:46:34;;;;;;;5.93;2.87;;;12.90;1.00;;;;;;5035112;28;20453;-79
2022/09/27 09:49:12;;;;;;;3.40;2.30;;;13.00;1.00;;;;;;5033574;28;20393;-71
2022/09/27 09:51:43;;;;;;;5.93;2.67;;;13.10;1.00;;;;;;5034646;28;20476;-72
2022/09/27 09:54:25;;;;;;;3.00;2.47;;;13.10;1.00;;;;;;5033208;28;20549;-72
2022/09/27 09:57:03;;;;;;;4.30;3.33;;;13.10;1.00;;;;;;5034807;28;20464;-69
2022/09/27 09:59:39;;;;;;;4.93;2.33;;;13.00;1.00;;;;;;5034907;28;20373;-73
2022/09/27 10:02:17;;;;;;;6.07;2.30;;;12.90;1.00;;;;;;5034549;28;20424;-72
2022/09/27 10:04:42;;;;;;;5.60;2.70;;;12.90;1.00;;;;;;5033902;28;20420;-70
2022/09/27 10:07:08;;;;;;;5.50;2.87;;;12.90;1.00;;;;;;5034308;28;21058;-73
2022/09/27 10:09:35;;;;;;;6.27;2.90;;;13.00;1.00;;;;;;5033274;28;20175;-72
2022/09/27 10:12:00;;;;;;;7.60;2.77;;;13.00;1.00;;;;;;5034651;28;20245;-70
2022/09/27 10:14:27;;;;;;;10.90;3.00;;;13.00;1.00;;;;;;5033963;28;20412;-73
2022/09/27 10:17:00;;;;;;;5.20;1.90;;;12.90;1.00;;;;;;5034509;28;20573;-70
2022/09/27 10:19:31;;;;;;;3.30;1.87;;;12.80;1.00;;;;;;5034598;28;20751;-70
2022/09/27 10:22:27;;;;;;;3.10;2.13;;;12.70;1.00;;;;;;5034622;28;20399;-72
2022/09/27 10:24:54;;;;;;;3.60;2.37;;;12.60;1.00;;;;;;5032493;28;20469;-74
2022/09/27 10:27:22;;;;;;;5.10;2.37;;;12.60;1.00;;;;;;5034221;28;20474;-69
2022/09/27 10:29:56;;;;;;;5.67;2.73;;;12.60;1.00;;;;;;5036754;28;20384;-69
2022/09/27 10:32:35;;;;;;;4.70;2.63;;;12.60;1.00;;;;;;5034197;28;20376;-71
2022/09/27 10:35:28;;;;;;;4.70;2.10;;;12.60;1.00;;;;;;5033452;28;20424;-70
2022/09/27 10:38:17;;;;;;;4.60;2.30;;;12.70;1.00;;;;;;5034140;28;20377;-71
2022/09/27 10:40:43;;;;;;;5.70;3.40;;;12.70;1.00;;;;;;5034079;28;20797;-69
2022/09/27 10:43:31;;;;;;;3.63;2.27;;;12.80;1.00;;;;;;5033359;28;20410;-72
2022/09/27 10:46:03;;;;;;;3.10;2.40;;;12.80;1.00;;;;;;5033457;28;20424;-72
2022/09/27 10:48:29;;;;;;;3.00;2.10;;;12.90;1.00;;;;;;5033884;28;20527;-69
2022/09/27 10:51:04;;;;;;;6.57;2.33;;;12.90;1.00;;;;;;5032770;28;20476;-70
2022/09/27 10:53:32;;;;;;;3.10;2.20;;;13.00;1.00;;;;;;5033740;28;20426;-73
2022/09/27 10:55:58;;;;;;;3.43;2.27;;;13.00;1.00;;;;;;5033230;28;20437;-70
2022/09/27 10:58:29;;;;;;;2.97;1.73;;;13.00;1.00;;;;;;5033497;28;20444;-69
2022/09/27 11:01:08;;;;;;;4.33;2.90;;;13.10;1.00;;;;;;5033484;28;20447;-72
2022/09/27 11:03:45;;;;;;;4.90;1.57;;;13.00;1.00;;;;;;5033033;28;20577;-71
2022/09/27 11:06:23;;;;;;;4.57;2.30;;;13.10;1.00;;;;;;5032378;28;20819;-69
2022/09/27 11:08:52;;;;;;;3.10;1.97;;;13.20;1.00;;;;;;5033522;28;20438;-70
2022/09/27 11:11:19;;;;;;;2.57;1.70;;;13.20;1.00;;;;;;5032700;28;20410;-71
2022/09/27 11:13:57;;;;;;;4.70;1.90;;;13.30;1.00;;;;;;5032900;28;20397;-70
2022/09/27 11:16:45;;;;;;;4.80;1.53;;;13.20;1.00;;;;;;5033426;28;20426;-69
2022/09/27 11:19:29;;;;;;;2.80;1.70;;;13.10;1.00;;;;;;5031312;28;20414;-71
2022/09/27 11:22:14;;;;;;;5.47;1.60;;;13.10;1.00;;;;;;5033486;28;20452;-71
2022/09/27 11:25:04;;;;;;;3.33;1.60;;;13.20;1.00;;;;;;5032493;28;20485;-71
2022/09/27 11:27:46;;;;;;;2.40;1.70;;;13.30;1.00;;;;;;5032395;28;20434;-71
2022/09/27 11:30:16;;;;;;;2.23;1.40;;;13.30;1.00;;;;;;5033571;28;20953;-72
2022/09/27 11:32:48;;;;;;;7.43;1.60;;;13.10;1.00;;;;;;5033219;28;20879;-69
2022/09/27 11:35:25;;;;;;;2.47;1.47;;;13.00;1.00;;;;;;5032261;28;20446;-68
2022/09/27 11:38:18;;;;;;;1.77;1.67;;;13.10;1.00;;;;;;5033141;28;20402;-67
2022/09/27 11:41:01;;;;;;;2.90;1.40;;;13.10;1.00;;;;;;5031763;28;20426;-67
2022/09/27 11:44:10;;;;;;;2.50;2.00;;;13.20;1.00;;;;;;5032985;28;20459;-66
2022/09/27 11:46:38;;;;;;;2.10;1.70;;;13.20;1.00;;;;;;5033085;28;20470;-67
2022/09/27 11:49:26;;;;;;;3.63;1.60;;;13.40;1.00;;;;;;5032980;28;20397;-67
2022/09/27 11:52:21;;;;;;;2.13;1.40;;;13.50;1.00;;;;;;5037376;28;20413;-69
2022/09/27 11:54:59;;;;;;;3.40;1.50;;;13.50;1.00;;;;;;5036112;28;20380;-66
2022/09/27 11:58:01;;;;;;;2.80;1.53;;;13.50;1.00;;;;;;5036847;28;20405;-67
2022/09/27 12:00:45;;;;;;;2.07;1.40;;;13.60;1.00;;;;;;5037018;28;20413;-67
2022/09/27 12:03:31;;;;;;;2.20;1.57;;;13.60;1.00;;;;;;5036847;28;20412;-71
2022/09/27 12:06:19;;;;;;;3.60;1.70;;;13.60;1.00;;;;;;5036389;28;20466;-70
2022/09/27 12:08:51;;;;;;;6.10;2.43;;;13.70;1.00;;;;;;5035860;28;20385;-70
2022/09/27 12:11:41;;;;;;;3.17;1.77;;;13.70;99.90;;;;;;5035395;28;20784;-70
2022/09/27 12:14:28;;;;;;;2.67;1.40;;;13.70;99.90;;;;;;5036140;28;20412;-66
2022/09/27 12:16:56;;;;;;;3.20;1.53;;;13.60;99.90;;;;;;5036776;28;20503;-66
2022/09/27 12:19:46;;;;;;;2.00;1.53;;;13.60;99.90;;;;;;5036654;28;20409;-69
2022/09/27 12:22:17;;;;;;;1.50;1.40;;;13.50;99.90;;;;;;5036701;28;20424;-69
2022/09/27 12:24:44;;;;;;;3.50;1.20;;;13.40;99.90;;;;;;5034470;28;20507;-69
2022/09/27 12:27:18;;;;;;;2.40;1.37;;;13.30;99.90;;;;;;5036664;28;20414;-70
2022/09/27 12:29:46;;;;;;;4.00;1.43;;;13.30;99.90;;;;;;5035191;28;20418;-66
2022/09/27 12:32:21;;;;;;;1.30;1.20;;;13.10;99.90;;;;;;5036272;28;20380;-68
2022/09/27 12:34:54;;;;;;;3.80;2.27;;;13.00;99.90;;;;;;5037736;28;20901;-67
2022/09/27 12:37:30;;;;;;;3.93;1.80;;;13.20;99.90;;;;;;5036440;28;20409;-69
2022/09/27 12:40:20;;;;;;;2.03;1.33;;;13.20;99.90;;;;;;5036474;28;20464;-66
2022/09/27 12:43:06;;;;;;;2.10;1.63;;;13.20;99.90;;;;;;5036326;28;20385;-68
2022/09/27 12:45:31;;;;;;;1.93;1.73;;;13.30;99.90;;;;;;5034775;28;20472;-68
2022/09/27 12:48:21;;;;;;;1.63;1.53;;;13.30;99.90;;;;;;5036387;28;20416;-68
2022/09/27 12:50:56;;;;;;;2.53;1.60;;;13.40;99.90;;;;;;5035807;28;20263;-67
2022/09/27 12:53:37;;;;;;;5.47;1.53;;;13.50;99.90;;;;;;5035801;28;20544;-67
2022/09/27 12:56:35;;;;;;;1.37;1.27;;;13.40;99.90;;;;;;5036117;28;20469;-69
2022/09/27 12:59:10;;;;;;;5.13;1.40;;;13.30;99.90;;;;;;5036015;28;20406;-66
2022/09/27 13:02:11;;;;;;;1.63;1.53;;;13.20;99.90;;;;;;5034708;28;20818;-68
2022/09/27 13:05:42;;;;;;;6.10;1.40;;;13.20;99.90;;;;;;5034206;28;20413;-66
2022/09/27 13:08:34;;;;;;;3.00;1.40;;;13.30;99.90;;;;;;4993910;28;20426;-66
2022/09/27 13:11:36;;;;;;;2.70;1.50;;;13.30;99.90;;;;;;5034312;28;20493;-68
2022/09/27 13:14:04;;;;;;;2.40;1.50;;;13.20;99.90;;;;;;5035093;28;20508;-66
2022/09/27 13:16:30;;;;;;;1.83;1.73;;;13.20;99.90;;;;;;5036035;28;20517;-66
2022/09/27 13:19:01;;;;;;;2.70;1.50;;;13.20;99.90;;;;;;5035765;28;20835;-66
2022/09/27 13:21:48;;;;;;;1.97;1.73;;;13.20;99.90;;;;;;5035596;28;20410;-67
2022/09/27 13:24:42;;;;;;;8.40;5.17;;;13.20;99.90;;;;;;5034821;28;20410;-66
2022/09/27 13:27:28;;;;;;;3.37;1.80;;;13.20;99.90;;;;;;5035020;28;20778;-67
2022/09/27 13:30:06;;;;;;;1.30;1.20;;;13.10;99.90;;;;;;5034992;28;20380;-66
2022/09/27 13:32:32;;;;;;;1.40;1.30;;;13.10;99.90;;;;;;5035358;28;20402;-67
2022/09/27 13:35:19;;;;;;;3.00;1.80;;;13.20;99.90;;;;;;5034798;28;20514;-66